Time;durP1;ratioP1;P1;durP2;ratioP2;P2;SDS_P1;SDS_P2;PMS_P1;PMS_P2;Temp;Humidity;BMP_temperature;BMP_pressure;BME280_temperature;BME280_humidity;BME280_pressure;Samples;Min_cycle;Max_cycle;Signal;HPM_P1;HPM_P2
2021/05/06 00:00:06;;;;;;;4.30;1.67;;;6.80;98.10;;;;;;5094040;28;20082;-79
2021/05/06 00:02:51;;;;;;;3.65;1.75;;;6.80;98.10;;;;;;5093712;28;20044;-79
2021/05/06 00:08:17;;;;;;;3.35;1.38;;;6.90;98.20;;;;;;5093903;28;20044;-79
2021/05/06 00:11:13;;;;;;;3.80;1.63;;;7.00;98.10;;;;;;5108309;28;20058;-79
2021/05/06 00:32:55;;;;;;;5.28;1.50;;;7.30;97.00;;;;;;5113055;28;20501;-78
2021/05/06 00:35:21;;;;;;;5.50;1.63;;;7.40;97.10;;;;;;5113864;28;20500;-77
2021/05/06 00:37:56;;;;;;;3.78;1.27;;;7.30;97.10;;;;;;5113875;28;20055;-78
2021/05/06 00:40:29;;;;;;;3.30;1.60;;;7.40;97.40;;;;;;5114090;28;20046;-79
2021/05/06 00:43:17;;;;;;;4.72;1.42;;;7.40;97.20;;;;;;5113633;28;20482;-79
2021/05/06 00:46:14;;;;;;;4.88;1.52;;;7.40;97.50;;;;;;5113468;28;20044;-79
2021/05/06 00:54:28;;;;;;;3.55;1.60;;;7.40;97.20;;;;;;5114016;28;20062;-77
2021/05/06 00:56:59;;;;;;;4.55;1.73;;;7.30;97.40;;;;;;5113695;28;20562;-77
2021/05/06 00:59:38;;;;;;;3.92;1.77;;;7.30;97.50;;;;;;5113690;28;20134;-79
2021/05/06 01:02:27;;;;;;;4.13;1.52;;;7.30;97.60;;;;;;5113720;28;20054;-79
2021/05/06 01:04:56;;;;;;;3.65;1.45;;;7.30;98.00;;;;;;5113277;28;20040;-79
2021/05/06 01:07:39;;;;;;;3.22;1.48;;;7.20;97.80;;;;;;5112649;28;20051;-78
2021/05/06 01:10:28;;;;;;;4.67;1.70;;;7.20;97.80;;;;;;5117487;28;20485;-77
2021/05/06 01:12:54;;;;;;;4.15;1.50;;;7.20;97.80;;;;;;5117722;28;20289;-79
2021/05/06 01:15:22;;;;;;;3.30;1.52;;;7.20;97.90;;;;;;5117788;28;20036;-77
2021/05/06 01:17:49;;;;;;;4.65;1.95;;;7.20;97.90;;;;;;5117591;28;20505;-78
2021/05/06 01:20:16;;;;;;;3.72;1.55;;;7.10;97.90;;;;;;5118015;28;20051;-78
2021/05/06 01:22:44;;;;;;;4.65;1.80;;;7.10;97.90;;;;;;5117124;28;20079;-79
2021/05/06 01:25:12;;;;;;;4.60;1.52;;;7.10;97.90;;;;;;5117281;28;20183;-79
2021/05/06 01:27:43;;;;;;;3.90;1.60;;;7.10;97.90;;;;;;5116714;28;20054;-79
2021/05/06 01:30:21;;;;;;;6.43;2.13;;;7.10;97.90;;;;;;5117171;28;20113;-79
2021/05/06 01:32:51;;;;;;;4.10;1.60;;;7.10;97.90;;;;;;5116938;28;20412;-77
2021/05/06 01:35:21;;;;;;;4.40;1.52;;;7.10;97.80;;;;;;5117384;28;20070;-78
2021/05/06 01:38:00;;;;;;;3.03;1.40;;;7.10;97.80;;;;;;5116459;28;20485;-79
2021/05/06 01:43:33;;;;;;;4.03;1.63;;;7.10;97.70;;;;;;5040386;28;20491;-78
2021/05/06 01:46:22;;;;;;;3.42;1.40;;;7.20;97.60;;;;;;5100968;28;20052;-78
2021/05/06 01:49:14;;;;;;;4.53;1.40;;;7.20;97.60;;;;;;5101028;28;20533;-77
2021/05/06 01:59:58;;;;;;;3.63;1.38;;;7.30;97.40;;;;;;5117094;28;20058;-77
2021/05/06 02:02:25;;;;;;;3.38;1.23;;;7.30;97.30;;;;;;5117017;28;20405;-79
2021/05/06 02:04:52;;;;;;;4.25;1.40;;;7.30;97.30;;;;;;5116870;28;20496;-79
2021/05/06 02:07:18;;;;;;;4.07;1.70;;;7.30;97.10;;;;;;5115310;28;20181;-77
2021/05/06 02:09:47;;;;;;;3.53;1.50;;;7.30;97.00;;;;;;5116463;28;20085;-79
2021/05/06 02:12:15;;;;;;;4.13;1.48;;;7.30;96.90;;;;;;5116613;28;20052;-79
2021/05/06 02:14:46;;;;;;;4.68;1.52;;;7.30;97.00;;;;;;5116087;28;20108;-79
2021/05/06 02:17:13;;;;;;;4.10;1.63;;;7.40;96.90;;;;;;5116144;28;20465;-78
2021/05/06 02:19:43;;;;;;;4.30;1.65;;;7.30;96.60;;;;;;5115750;28;20051;-79
2021/05/06 02:22:10;;;;;;;5.88;1.88;;;7.40;96.50;;;;;;5116237;28;20048;-77
2021/05/06 02:24:37;;;;;;;6.25;1.95;;;7.30;96.50;;;;;;5115836;28;20485;-79
2021/05/06 02:27:05;;;;;;;4.40;1.58;;;7.30;96.60;;;;;;5116157;28;20048;-77
2021/05/06 02:29:31;;;;;;;4.35;1.40;;;7.40;96.70;;;;;;5115899;28;20051;-78
2021/05/06 02:31:58;;;;;;;4.18;1.50;;;7.40;96.60;;;;;;5116165;28;20048;-79
2021/05/06 02:34:24;;;;;;;4.43;1.40;;;7.40;96.70;;;;;;5115714;28;20082;-78
2021/05/06 02:36:51;;;;;;;3.60;1.40;;;7.40;96.70;;;;;;5115949;28;20052;-78
2021/05/06 02:39:18;;;;;;;4.55;1.65;;;7.40;96.70;;;;;;5116023;28;20503;-79
2021/05/06 02:41:44;;;;;;;5.18;1.50;;;7.40;97.00;;;;;;5116031;28;20454;-78
2021/05/06 02:44:12;;;;;;;3.63;1.65;;;7.30;96.70;;;;;;5116025;28;20071;-78
2021/05/06 02:46:39;;;;;;;6.45;1.55;;;7.40;96.80;;;;;;5115776;28;20083;-79
2021/05/06 02:49:05;;;;;;;4.88;1.67;;;7.40;96.70;;;;;;5121129;28;20082;-79
2021/05/06 02:51:35;;;;;;;4.07;1.60;;;7.40;96.70;;;;;;5126654;28;20043;-78
2021/05/06 02:54:02;;;;;;;4.03;1.48;;;7.40;96.70;;;;;;5123834;28;20052;-79
2021/05/06 02:56:34;;;;;;;4.68;1.50;;;7.40;96.80;;;;;;5116085;28;20051;-79
2021/05/06 02:59:13;;;;;;;4.00;1.15;;;7.50;96.80;;;;;;5119304;28;20443;-79
2021/05/06 03:04:25;;;;;;;3.85;1.30;;;7.50;96.80;;;;;;5117148;28;20511;-78
2021/05/06 03:06:55;;;;;;;4.65;1.50;;;7.60;96.80;;;;;;5114907;28;20047;-78
2021/05/06 03:09:34;;;;;;;3.22;1.35;;;7.60;96.80;;;;;;5112898;28;20044;-77
2021/05/06 03:12:10;;;;;;;3.67;1.40;;;7.60;97.10;;;;;;5113012;28;20093;-79
2021/05/06 03:14:59;;;;;;;2.65;1.25;;;7.60;96.80;;;;;;5113366;28;20044;-78
2021/05/06 03:22:54;;;;;;;3.45;1.10;;;7.60;97.00;;;;;;5109226;28;20058;-78
2021/05/06 03:25:22;;;;;;;2.90;1.20;;;7.70;97.00;;;;;;5121974;28;20044;-78
2021/05/06 03:27:54;;;;;;;4.03;1.20;;;7.70;97.20;;;;;;5118979;28;20048;-78
2021/05/06 03:41:45;;;;;;;3.40;1.17;;;7.80;96.90;;;;;;5119299;28;20051;-77
2021/05/06 03:44:34;;;;;;;3.60;1.63;;;7.80;96.90;;;;;;5122448;28;20135;-75
2021/05/06 04:17:45;;;;;;;3.60;1.45;;;7.80;97.40;;;;;;5114428;28;20043;-79
2021/05/06 04:25:54;;;;;;;2.65;1.17;;;7.90;97.80;;;;;;5114277;28;20140;-78
2021/05/06 04:31:19;;;;;;;3.53;1.25;;;7.80;97.60;;;;;;5065162;28;20481;-79
2021/05/06 04:36:38;;;;;;;5.15;1.73;;;7.80;97.70;;;;;;5114340;28;20096;-79
2021/05/06 04:39:11;;;;;;;3.80;1.73;;;7.80;97.80;;;;;;5115205;28;20048;-78
2021/05/06 04:41:44;;;;;;;3.70;1.75;;;7.80;97.80;;;;;;5114271;28;20157;-79
2021/05/06 04:55:10;;;;;;;3.38;1.30;;;7.90;97.40;;;;;;5113910;28;20516;-78
2021/05/06 05:05:50;;;;;;;3.30;1.10;;;7.80;97.80;;;;;;5113513;28;20050;-79
2021/05/06 05:08:18;;;;;;;3.28;1.27;;;7.70;97.90;;;;;;5113248;28;20079;-78
2021/05/06 05:10:52;;;;;;;3.30;1.33;;;7.70;98.00;;;;;;5113683;28;20059;-79
2021/05/06 05:19:02;;;;;;;3.33;1.30;;;7.60;98.40;;;;;;5113633;28;20040;-78
2021/05/06 05:24:21;;;;;;;3.20;1.40;;;7.60;98.80;;;;;;5113453;28;20138;-78
2021/05/06 05:26:49;;;;;;;6.17;1.80;;;7.70;98.60;;;;;;5113100;28;20044;-78
2021/05/06 05:29:15;;;;;;;4.65;1.40;;;7.70;98.60;;;;;;5112321;28;20294;-78
2021/05/06 05:31:42;;;;;;;3.28;1.30;;;7.80;98.50;;;;;;5113506;28;20051;-79
2021/05/06 05:34:21;;;;;;;4.82;1.60;;;7.80;98.30;;;;;;5113483;28;20056;-78
2021/05/06 05:36:50;;;;;;;3.40;1.30;;;7.90;98.30;;;;;;5113427;28;20416;-78
2021/05/06 05:39:22;;;;;;;3.30;1.35;;;8.00;98.20;;;;;;5113291;28;20100;-79
2021/05/06 05:45:19;;;;;;;4.22;1.20;;;8.00;98.20;;;;;;5113084;28;20043;-78
2021/05/06 05:56:02;;;;;;;3.40;1.30;;;8.20;98.20;;;;;;5116963;28;20057;-79
2021/05/06 05:58:29;;;;;;;3.45;1.40;;;8.20;98.20;;;;;;5116911;28;20454;-78
2021/05/06 06:00:56;;;;;;;4.35;1.30;;;8.20;98.30;;;;;;5116822;28;20128;-79
2021/05/06 06:03:22;;;;;;;3.97;1.50;;;8.30;98.10;;;;;;5116664;28;20132;-78
2021/05/06 06:05:52;;;;;;;4.88;1.38;;;8.40;98.10;;;;;;5116327;28;20493;-78
2021/05/06 06:08:22;;;;;;;3.72;1.40;;;8.40;97.80;;;;;;5116704;28;20047;-79
2021/05/06 06:10:49;;;;;;;3.58;1.08;;;8.40;97.70;;;;;;5123048;28;20048;-79
2021/05/06 06:13:16;;;;;;;3.88;1.35;;;8.50;97.80;;;;;;5123532;28;20063;-79
2021/05/06 06:15:53;;;;;;;4.38;1.50;;;8.50;97.60;;;;;;5125831;28;20044;-78
2021/05/06 06:18:24;;;;;;;2.97;1.40;;;8.60;97.30;;;;;;5124891;28;20108;-79
2021/05/06 06:20:59;;;;;;;4.60;1.60;;;8.70;96.80;;;;;;5117321;28;20044;-79
2021/05/06 06:23:27;;;;;;;5.18;1.83;;;8.80;96.50;;;;;;5115997;28;20050;-78
2021/05/06 06:25:54;;;;;;;4.97;1.73;;;8.80;96.20;;;;;;5116355;28;20183;-78
2021/05/06 06:28:21;;;;;;;5.22;2.03;;;8.80;95.60;;;;;;5116356;28;20048;-79
2021/05/06 06:30:48;;;;;;;3.83;1.70;;;8.90;95.70;;;;;;5116190;28;20070;-76
2021/05/06 06:33:15;;;;;;;4.15;1.58;;;8.90;95.60;;;;;;5116183;28;20466;-77
2021/05/06 06:35:42;;;;;;;6.43;1.77;;;9.00;95.70;;;;;;5116012;28;20086;-79
2021/05/06 06:38:09;;;;;;;7.78;1.67;;;9.00;95.30;;;;;;5117656;28;20079;-79
2021/05/06 06:40:36;;;;;;;7.07;2.20;;;8.90;95.30;;;;;;5115774;28;20134;-79
2021/05/06 06:43:04;;;;;;;5.25;1.92;;;9.10;95.40;;;;;;5116078;28;20134;-79
2021/05/06 06:45:31;;;;;;;5.45;2.00;;;9.10;95.30;;;;;;5115681;28;20446;-79
2021/05/06 06:47:58;;;;;;;5.10;1.75;;;9.20;95.30;;;;;;5115766;28;20087;-78
2021/05/06 06:50:25;;;;;;;5.57;1.90;;;9.30;95.30;;;;;;5115363;28;20051;-79
2021/05/06 06:52:51;;;;;;;6.88;1.92;;;9.30;95.50;;;;;;5116072;28;20078;-79
2021/05/06 06:55:19;;;;;;;4.75;1.70;;;9.40;95.40;;;;;;5115581;28;20126;-78
2021/05/06 06:57:45;;;;;;;4.32;1.80;;;9.40;95.00;;;;;;5115502;28;20054;-79
2021/05/06 07:00:13;;;;;;;4.28;1.77;;;9.50;94.80;;;;;;5115606;28;20181;-79
2021/05/06 07:02:40;;;;;;;5.45;1.60;;;9.50;94.80;;;;;;5115910;28;20040;-79
2021/05/06 07:05:09;;;;;;;7.65;1.98;;;9.60;94.80;;;;;;5116157;28;20051;-77
2021/05/06 07:07:36;;;;;;;5.22;1.73;;;9.70;94.70;;;;;;5115470;28;20051;-78
2021/05/06 07:10:03;;;;;;;5.72;1.75;;;9.70;94.20;;;;;;5115626;28;20104;-76
2021/05/06 07:12:31;;;;;;;4.40;1.45;;;9.80;94.00;;;;;;5114862;28;20083;-79
2021/05/06 07:14:57;;;;;;;5.30;1.63;;;9.80;94.30;;;;;;5115815;28;20397;-78
2021/05/06 07:17:24;;;;;;;5.57;1.40;;;9.80;94.10;;;;;;5115460;28;20048;-78
2021/05/06 07:19:50;;;;;;;4.63;1.45;;;9.90;94.10;;;;;;5114922;28;20079;-79
2021/05/06 07:22:18;;;;;;;4.90;1.45;;;10.00;93.90;;;;;;5115509;28;20083;-78
2021/05/06 07:24:44;;;;;;;5.38;1.60;;;10.00;93.80;;;;;;5115600;28;20134;-79
2021/05/06 07:27:11;;;;;;;4.85;1.40;;;10.10;93.60;;;;;;5115160;28;20071;-79
2021/05/06 07:29:37;;;;;;;8.02;1.60;;;10.20;93.40;;;;;;5115489;28;20090;-79
2021/05/06 07:32:06;;;;;;;5.47;1.58;;;10.20;92.90;;;;;;5114920;28;20039;-75
2021/05/06 07:34:32;;;;;;;7.38;1.73;;;10.30;93.00;;;;;;5115308;28;20086;-78
2021/05/06 07:36:59;;;;;;;5.03;1.58;;;10.40;92.70;;;;;;5115391;28;20094;-79
2021/05/06 07:39:26;;;;;;;6.65;1.90;;;10.30;92.30;;;;;;5115807;28;20083;-79
2021/05/06 07:41:53;;;;;;;7.38;1.90;;;10.40;92.00;;;;;;5115803;28;20094;-79
2021/05/06 07:44:20;;;;;;;4.45;1.40;;;10.40;92.00;;;;;;5115942;28;20054;-79
2021/05/06 07:46:46;;;;;;;3.35;1.42;;;10.40;92.20;;;;;;5096180;28;20047;-78
2021/05/06 07:49:13;;;;;;;6.22;1.45;;;10.50;92.60;;;;;;5116913;28;20386;-76
2021/05/06 07:51:39;;;;;;;5.90;1.65;;;10.50;92.60;;;;;;5115817;28;20047;-77
2021/05/06 07:54:07;;;;;;;5.38;1.60;;;10.70;92.90;;;;;;5115187;28;20075;-77
2021/05/06 07:56:35;;;;;;;5.43;1.80;;;10.80;93.00;;;;;;5096879;28;20040;-78
2021/05/06 07:59:01;;;;;;;5.18;1.70;;;10.90;92.90;;;;;;5115497;28;20122;-77
2021/05/06 08:01:28;;;;;;;4.75;1.77;;;11.00;92.50;;;;;;5114012;28;20555;-79
2021/05/06 08:03:54;;;;;;;5.88;1.85;;;11.00;92.20;;;;;;5114897;28;20105;-78
2021/05/06 08:06:21;;;;;;;4.65;1.50;;;11.10;92.20;;;;;;5115123;28;20457;-79
2021/05/06 08:08:51;;;;;;;4.82;1.83;;;11.10;91.90;;;;;;5114721;28;20083;-77
2021/05/06 08:11:17;;;;;;;4.78;1.80;;;11.10;91.60;;;;;;5114599;28;20048;-79
2021/05/06 08:13:46;;;;;;;3.90;1.50;;;11.10;91.60;;;;;;5122946;28;20471;-79
2021/05/06 08:16:12;;;;;;;6.03;1.52;;;11.10;91.70;;;;;;5114998;28;20122;-79
2021/05/06 08:18:39;;;;;;;5.97;1.92;;;11.00;91.90;;;;;;5124869;28;20059;-79
2021/05/06 08:21:06;;;;;;;4.60;1.58;;;11.00;91.90;;;;;;5126678;28;20482;-78
2021/05/06 08:23:33;;;;;;;5.00;1.50;;;11.00;91.70;;;;;;5124778;28;20044;-78
2021/05/06 08:25:59;;;;;;;4.00;1.25;;;10.80;91.70;;;;;;5124870;28;20080;-76
2021/05/06 08:28:26;;;;;;;4.90;1.50;;;10.90;91.90;;;;;;5123786;28;20083;-77
2021/05/06 08:30:53;;;;;;;4.18;1.27;;;10.90;91.90;;;;;;5116807;28;20157;-79
2021/05/06 08:33:20;;;;;;;5.07;1.70;;;10.90;92.10;;;;;;5118817;28;20078;-79
2021/05/06 08:35:46;;;;;;;5.38;1.40;;;10.80;92.10;;;;;;5114475;28;20062;-78
2021/05/06 08:38:13;;;;;;;4.80;1.80;;;10.80;92.00;;;;;;5114724;28;20130;-79
2021/05/06 08:40:41;;;;;;;6.65;1.52;;;10.80;92.00;;;;;;5113946;28;20071;-79
2021/05/06 08:43:11;;;;;;;5.90;1.52;;;10.80;92.00;;;;;;5114587;28;20040;-78
2021/05/06 08:45:44;;;;;;;4.60;1.60;;;10.80;92.10;;;;;;5114727;28;20458;-79
2021/05/06 08:48:15;;;;;;;4.88;1.70;;;10.80;91.90;;;;;;5074519;28;20135;-79
2021/05/06 08:50:43;;;;;;;3.78;1.75;;;10.80;92.20;;;;;;5074297;28;20083;-77
2021/05/06 08:53:10;;;;;;;3.72;1.20;;;10.80;91.80;;;;;;5073940;28;20131;-78
2021/05/06 08:55:37;;;;;;;3.78;1.23;;;10.90;91.80;;;;;;5073237;28;20122;-78
2021/05/06 08:58:04;;;;;;;3.88;1.50;;;10.90;91.80;;;;;;5078233;28;20087;-78
2021/05/06 09:00:31;;;;;;;4.55;1.80;;;10.90;91.80;;;;;;5082555;28;20048;-76
2021/05/06 09:02:58;;;;;;;4.40;1.90;;;11.00;92.20;;;;;;5073643;28;20102;-78
2021/05/06 09:05:25;;;;;;;4.18;1.65;;;11.00;92.50;;;;;;5074422;28;20049;-78
2021/05/06 09:07:52;;;;;;;5.05;1.90;;;10.90;92.50;;;;;;5077119;28;20087;-79
2021/05/06 09:10:37;;;;;;;4.57;1.50;;;11.00;92.60;;;;;;5080763;28;20044;-77
2021/05/06 09:13:04;;;;;;;4.90;1.50;;;10.90;92.70;;;;;;5076072;28;20513;-78
2021/05/06 09:15:31;;;;;;;5.97;1.48;;;11.00;92.20;;;;;;5077463;28;20076;-79
2021/05/06 09:17:57;;;;;;;5.10;1.90;;;11.00;92.20;;;;;;5073803;28;20059;-79
2021/05/06 09:20:27;;;;;;;5.53;1.75;;;11.00;92.20;;;;;;5073447;28;20095;-78
2021/05/06 09:22:57;;;;;;;5.60;1.90;;;11.00;92.00;;;;;;5073629;28;20071;-77
2021/05/06 09:25:26;;;;;;;4.60;1.45;;;10.90;91.70;;;;;;5073099;28;20044;-78
2021/05/06 09:28:12;;;;;;;5.18;1.67;;;10.90;91.40;;;;;;5073258;28;20135;-80
2021/05/06 09:30:50;;;;;;;3.92;1.17;;;10.80;91.50;;;;;;5077260;28;20044;-79
2021/05/06 09:33:19;;;;;;;5.45;1.40;;;10.60;91.30;;;;;;5075802;28;20087;-77
2021/05/06 09:35:48;;;;;;;4.00;1.27;;;10.60;91.20;;;;;;5076824;28;20083;-78
2021/05/06 09:38:30;;;;;;;4.68;1.45;;;10.60;91.40;;;;;;5081675;28;20080;-78
2021/05/06 09:41:00;;;;;;;3.53;1.20;;;10.50;91.60;;;;;;5069534;28;20091;-77
2021/05/06 09:43:31;;;;;;;5.35;1.60;;;10.50;91.70;;;;;;5084226;28;20056;-78
2021/05/06 09:46:00;;;;;;;4.45;1.27;;;10.50;92.00;;;;;;5080765;28;20055;-76
2021/05/06 09:48:29;;;;;;;4.90;1.30;;;10.40;92.30;;;;;;5117823;28;20548;-78
2021/05/06 09:51:01;;;;;;;4.05;1.30;;;10.50;92.60;;;;;;5099671;28;20096;-77
2021/05/06 09:53:32;;;;;;;3.97;1.30;;;10.40;93.00;;;;;;5117352;28;20563;-79
2021/05/06 09:56:00;;;;;;;4.57;1.30;;;10.40;93.30;;;;;;5117499;28;20126;-77
2021/05/06 09:58:31;;;;;;;4.72;1.50;;;10.40;93.70;;;;;;5117417;28;20087;-79
2021/05/06 10:01:09;;;;;;;5.80;1.67;;;10.40;94.00;;;;;;5117110;28;20051;-79
2021/05/06 10:03:38;;;;;;;4.75;1.40;;;10.40;94.10;;;;;;5100938;28;20206;-77
2021/05/06 10:06:13;;;;;;;3.92;1.38;;;10.40;94.40;;;;;;5099557;28;20446;-77
2021/05/06 10:08:40;;;;;;;4.93;1.52;;;10.40;94.70;;;;;;5117072;28;20051;-76
2021/05/06 10:11:12;;;;;;;4.80;1.60;;;10.50;95.00;;;;;;5098953;28;20110;-77
2021/05/06 10:13:40;;;;;;;6.10;1.70;;;10.40;95.20;;;;;;5099401;28;20046;-76
2021/05/06 10:16:08;;;;;;;4.28;1.27;;;10.40;95.30;;;;;;5115695;28;20052;-77
2021/05/06 10:18:38;;;;;;;4.45;1.40;;;10.40;95.40;;;;;;5116739;28;20058;-77
2021/05/06 10:21:05;;;;;;;4.78;1.60;;;10.30;95.60;;;;;;5116884;28;20135;-78
2021/05/06 10:23:33;;;;;;;3.92;1.38;;;10.20;95.70;;;;;;5098792;28;20069;-79
2021/05/06 10:26:01;;;;;;;4.28;1.33;;;10.30;95.90;;;;;;5116977;28;20127;-79
2021/05/06 10:28:28;;;;;;;4.38;1.45;;;10.30;96.00;;;;;;5116231;28;20079;-78
2021/05/06 10:30:57;;;;;;;4.55;1.30;;;10.20;95.90;;;;;;5116400;28;20493;-78
2021/05/06 10:33:26;;;;;;;3.63;1.20;;;10.30;96.10;;;;;;5116350;28;20044;-78
2021/05/06 10:35:53;;;;;;;4.50;1.42;;;10.30;96.00;;;;;;5098877;28;20089;-78
2021/05/06 10:38:20;;;;;;;3.20;1.23;;;10.30;96.30;;;;;;5116539;28;20130;-78
2021/05/06 10:40:50;;;;;;;3.28;1.27;;;10.30;96.40;;;;;;5098509;28;20099;-79
2021/05/06 10:43:28;;;;;;;3.72;1.30;;;10.40;96.50;;;;;;5098004;28;20555;-78
2021/05/06 10:46:01;;;;;;;3.47;1.10;;;10.50;96.50;;;;;;5115626;28;20048;-77
2021/05/06 10:49:01;;;;;;;4.07;1.20;;;10.60;96.40;;;;;;5116113;28;20083;-78
2021/05/06 10:51:39;;;;;;;3.65;1.40;;;10.60;96.50;;;;;;5127226;28;20047;-79
2021/05/06 10:54:27;;;;;;;4.13;1.13;;;10.70;96.40;;;;;;5122936;28;20409;-77
2021/05/06 10:56:56;;;;;;;4.20;1.20;;;10.70;96.50;;;;;;5098805;28;20101;-78
2021/05/06 10:59:24;;;;;;;5.03;1.23;;;10.80;96.20;;;;;;5116265;28;20138;-78
2021/05/06 11:01:51;;;;;;;4.05;1.20;;;10.90;96.20;;;;;;5116009;28;20044;-78
2021/05/06 11:04:35;;;;;;;3.92;1.30;;;10.90;96.20;;;;;;5115361;28;20073;-78
2021/05/06 11:07:18;;;;;;;3.05;1.30;;;11.00;95.90;;;;;;5097761;28;20092;-78
2021/05/06 11:09:55;;;;;;;3.95;1.40;;;10.90;95.80;;;;;;5114147;28;20604;-78
2021/05/06 11:12:29;;;;;;;4.75;1.30;;;11.00;95.80;;;;;;5115413;28;20047;-79
2021/05/06 11:15:27;;;;;;;3.72;1.40;;;11.00;95.80;;;;;;5115438;28;20047;-76
2021/05/06 11:17:56;;;;;;;3.20;1.50;;;11.10;95.80;;;;;;5115082;28;20044;-77
2021/05/06 11:21:01;;;;;;;3.95;1.50;;;11.10;95.60;;;;;;5115381;28;20102;-77
2021/05/06 11:23:35;;;;;;;4.82;1.58;;;11.20;95.50;;;;;;5115066;28;20746;-77
2021/05/06 11:26:11;;;;;;;5.00;1.30;;;11.20;95.10;;;;;;5115342;28;20138;-77
2021/05/06 11:29:03;;;;;;;4.05;1.90;;;11.20;95.20;;;;;;5115571;28;20043;-76
2021/05/06 11:31:48;;;;;;;4.25;1.40;;;11.20;95.40;;;;;;5115970;28;20087;-77
2021/05/06 11:34:50;;;;;;;5.22;1.30;;;11.20;95.10;;;;;;5114957;28;20505;-77
2021/05/06 11:37:22;;;;;;;2.97;1.10;;;11.30;95.30;;;;;;5115458;28;20075;-76
2021/05/06 11:40:06;;;;;;;4.90;1.27;;;11.30;95.30;;;;;;5115502;28;20104;-77
2021/05/06 11:42:38;;;;;;;5.43;1.25;;;11.40;95.00;;;;;;5115607;28;20058;-77
2021/05/06 11:45:28;;;;;;;3.67;1.10;;;11.40;94.70;;;;;;5113508;28;20134;-77
2021/05/06 11:47:57;;;;;;;5.43;1.23;;;11.40;94.60;;;;;;5114468;28;20102;-78
2021/05/06 11:50:32;;;;;;;4.15;1.60;;;11.30;94.60;;;;;;5115047;28;20058;-76
2021/05/06 11:53:02;;;;;;;3.85;1.80;;;11.40;94.50;;;;;;5112661;28;20063;-77
2021/05/06 11:55:39;;;;;;;3.83;1.70;;;11.30;94.50;;;;;;5115044;28;20056;-76
2021/05/06 11:58:07;;;;;;;6.82;3.03;;;11.30;94.60;;;;;;5114048;28;20557;-78
2021/05/06 12:00:37;;;;;;;5.43;2.45;;;11.30;94.30;;;;;;5114433;28;20101;-77
2021/05/06 12:03:07;;;;;;;8.20;3.65;;;11.30;94.50;;;;;;5114353;28;20055;-79
2021/05/06 12:05:58;;;;;;;5.60;1.90;;;11.30;94.50;;;;;;5113749;28;20134;-76
2021/05/06 12:08:27;;;;;;;3.30;1.40;;;11.30;94.70;;;;;;5114566;28;20503;-77
2021/05/06 12:10:56;;;;;;;2.38;1.00;;;11.30;94.80;;;;;;5114618;28;20054;-76
2021/05/06 12:13:32;;;;;;;4.72;1.63;;;11.30;94.90;;;;;;5112818;28;20125;-78
2021/05/06 12:16:21;;;;;;;4.75;1.25;;;11.40;94.90;;;;;;5113765;28;20043;-76
2021/05/06 12:19:08;;;;;;;8.32;3.75;;;11.40;94.80;;;;;;5113821;28;20055;-77
2021/05/06 12:21:42;;;;;;;5.00;2.20;;;11.40;95.00;;;;;;5113603;28;20104;-77
2021/05/06 12:24:11;;;;;;;4.67;1.50;;;11.40;95.00;;;;;;5113724;28;20048;-78
2021/05/06 12:26:41;;;;;;;2.97;1.20;;;11.50;94.90;;;;;;5093403;28;20544;-78
2021/05/06 12:29:19;;;;;;;3.35;1.30;;;11.50;94.60;;;;;;5093452;28;20052;-78
2021/05/06 12:31:48;;;;;;;2.92;1.10;;;11.50;94.50;;;;;;5093408;28;20072;-78
2021/05/06 12:34:17;;;;;;;3.65;1.20;;;11.50;94.70;;;;;;5093767;28;20047;-76
2021/05/06 12:36:57;;;;;;;4.28;1.23;;;11.50;94.40;;;;;;5092970;28;20048;-77
2021/05/06 12:39:24;;;;;;;4.40;1.00;;;11.50;94.30;;;;;;5107733;28;20472;-77
2021/05/06 12:41:54;;;;;;;2.65;1.20;;;11.60;94.40;;;;;;5095594;28;20044;-77
2021/05/06 12:44:35;;;;;;;3.05;1.10;;;11.50;94.50;;;;;;5113455;28;20535;-77
2021/05/06 12:47:18;;;;;;;2.97;1.20;;;11.60;94.70;;;;;;5091172;28;20114;-78
2021/05/06 12:49:46;;;;;;;3.67;1.10;;;11.60;94.90;;;;;;5091542;28;20044;-78
2021/05/06 12:52:30;;;;;;;3.65;1.23;;;11.60;95.20;;;;;;5092609;28;20507;-76
2021/05/06 12:54:59;;;;;;;3.35;1.00;;;11.70;95.30;;;;;;5092489;28;20095;-77
2021/05/06 12:57:26;;;;;;;2.92;1.00;;;11.70;95.30;;;;;;5092900;28;20056;-77
2021/05/06 12:59:53;;;;;;;3.53;1.23;;;11.70;95.40;;;;;;5093155;28;20076;-78
2021/05/06 13:02:21;;;;;;;3.55;1.20;;;11.70;95.90;;;;;;5092891;28;20426;-77
2021/05/06 13:04:50;;;;;;;3.15;1.20;;;11.70;95.60;;;;;;5096867;28;20117;-77
2021/05/06 13:07:19;;;;;;;4.22;1.33;;;11.70;96.10;;;;;;5096860;28;20051;-79
2021/05/06 13:09:48;;;;;;;2.72;1.10;;;11.70;96.00;;;;;;5096492;28;20052;-78
2021/05/06 13:12:18;;;;;;;2.90;1.27;;;11.70;96.20;;;;;;5097125;28;20072;-78
2021/05/06 13:14:50;;;;;;;3.30;1.30;;;11.60;96.30;;;;;;5097243;28;20098;-78
2021/05/06 13:17:31;;;;;;;3.22;1.20;;;11.60;96.50;;;;;;5096158;28;20071;-76
2021/05/06 13:20:10;;;;;;;3.83;1.17;;;11.60;96.70;;;;;;5096307;28;20469;-77
2021/05/06 13:22:37;;;;;;;4.03;1.60;;;11.50;96.90;;;;;;5096907;28;20492;-78
2021/05/06 13:25:05;;;;;;;4.55;1.70;;;11.50;96.90;;;;;;5097090;28;20086;-76
2021/05/06 13:27:31;;;;;;;3.00;1.20;;;11.50;97.20;;;;;;5095299;28;20126;-78
2021/05/06 13:30:00;;;;;;;3.97;1.48;;;11.40;97.00;;;;;;5097015;28;20080;-79
2021/05/06 13:32:37;;;;;;;3.53;1.23;;;11.40;97.10;;;;;;5097007;28;20067;-77
2021/05/06 13:35:06;;;;;;;3.53;1.30;;;11.30;97.30;;;;;;5096064;28;20048;-79
2021/05/06 13:37:37;;;;;;;3.60;1.55;;;11.30;97.40;;;;;;5095306;28;20044;-78
2021/05/06 13:40:06;;;;;;;4.10;1.50;;;11.30;97.70;;;;;;5095228;28;20048;-76
2021/05/06 13:42:33;;;;;;;4.90;1.45;;;11.20;98.00;;;;;;5096380;28;20047;-79
2021/05/06 13:45:00;;;;;;;5.78;1.42;;;11.20;98.30;;;;;;5095844;28;20460;-79
2021/05/06 13:47:27;;;;;;;5.45;1.90;;;11.20;98.30;;;;;;5111021;28;20051;-79
2021/05/06 13:49:55;;;;;;;2.60;1.10;;;11.20;98.60;;;;;;5117707;28;20047;-77
2021/05/06 13:52:24;;;;;;;3.65;1.48;;;11.20;98.80;;;;;;5117261;28;20063;-78
2021/05/06 13:54:51;;;;;;;2.92;1.30;;;11.10;99.00;;;;;;5116661;28;20043;-76
2021/05/06 13:57:18;;;;;;;3.70;1.35;;;11.10;99.20;;;;;;5098706;28;20081;-78
2021/05/06 13:59:45;;;;;;;3.08;1.40;;;11.10;99.50;;;;;;5116748;28;20055;-78
2021/05/06 14:02:15;;;;;;;2.78;1.30;;;11.10;99.60;;;;;;5116382;28;20048;-78
2021/05/06 14:04:41;;;;;;;3.40;1.80;;;11.10;99.70;;;;;;5117066;28;20442;-78
2021/05/06 14:07:09;;;;;;;4.25;1.55;;;11.10;99.70;;;;;;5116744;28;20086;-79
2021/05/06 14:09:36;;;;;;;3.28;1.60;;;11.00;99.80;;;;;;5098497;28;20051;-80
2021/05/06 14:12:02;;;;;;;4.25;1.63;;;11.00;99.90;;;;;;5117106;28;20096;-79
2021/05/06 14:14:29;;;;;;;3.15;1.40;;;10.90;99.90;;;;;;5115643;28;20489;-78
2021/05/06 14:16:56;;;;;;;3.25;1.30;;;10.90;99.90;;;;;;5116359;28;20473;-79
2021/05/06 14:19:23;;;;;;;3.95;1.50;;;11.00;99.90;;;;;;5098487;28;20075;-80
2021/05/06 14:21:52;;;;;;;4.55;1.55;;;11.00;99.90;;;;;;5116148;28;20139;-77
2021/05/06 14:24:20;;;;;;;3.63;1.30;;;11.10;99.90;;;;;;5098203;28;20043;-78
2021/05/06 14:26:48;;;;;;;3.55;1.40;;;11.10;99.90;;;;;;5116328;28;20075;-80
2021/05/06 14:29:16;;;;;;;3.83;1.20;;;11.10;99.90;;;;;;5116267;28;20055;-78
2021/05/06 14:31:43;;;;;;;4.70;1.65;;;11.10;99.90;;;;;;5115168;28;20046;-78
2021/05/06 14:34:09;;;;;;;3.17;1.30;;;11.20;99.90;;;;;;5116802;28;20461;-78
2021/05/06 14:36:36;;;;;;;3.20;0.95;;;11.00;99.90;;;;;;5116025;28;20086;-76
2021/05/06 14:39:06;;;;;;;1.38;0.60;;;11.00;99.60;;;;;;5116702;28;20497;-77
2021/05/06 14:41:34;;;;;;;2.53;0.88;;;11.00;99.00;;;;;;5116399;28;20044;-78
2021/05/06 14:44:00;;;;;;;2.35;0.93;;;11.00;99.10;;;;;;5115680;28;20053;-79
2021/05/06 14:46:27;;;;;;;1.95;0.60;;;10.90;99.10;;;;;;5115766;28;20513;-78
2021/05/06 14:48:54;;;;;;;2.72;0.52;;;10.80;98.60;;;;;;5114221;28;20075;-77
2021/05/06 14:51:21;;;;;;;1.35;0.57;;;10.90;98.50;;;;;;5115162;28;20074;-77
2021/05/06 14:53:47;;;;;;;1.52;0.60;;;10.80;98.60;;;;;;5107017;28;20588;-78
2021/05/06 14:56:14;;;;;;;2.10;0.60;;;10.90;98.70;;;;;;5112018;28;20075;-79
2021/05/06 14:58:42;;;;;;;1.25;0.50;;;10.80;98.90;;;;;;5114536;28;20079;-79
2021/05/06 15:01:08;;;;;;;1.60;0.50;;;10.80;99.00;;;;;;5115268;28;20082;-79
2021/05/06 15:03:35;;;;;;;1.65;0.45;;;10.80;99.10;;;;;;5114883;28;20135;-77
2021/05/06 15:06:02;;;;;;;0.93;0.43;;;10.80;99.20;;;;;;5114614;28;20079;-79
2021/05/06 15:08:28;;;;;;;1.30;0.30;;;10.80;99.30;;;;;;5113331;28;20474;-79
2021/05/06 15:10:55;;;;;;;2.17;0.50;;;10.80;99.30;;;;;;5114944;28;20043;-78
2021/05/06 15:13:22;;;;;;;1.40;0.50;;;10.90;99.40;;;;;;5114759;28;20078;-75
2021/05/06 15:15:49;;;;;;;1.15;0.45;;;10.80;99.40;;;;;;5114789;28;20169;-76
2021/05/06 15:18:16;;;;;;;1.15;0.32;;;10.90;99.30;;;;;;5114977;28;20083;-76
2021/05/06 15:20:43;;;;;;;1.27;0.40;;;10.90;99.20;;;;;;5115253;28;20043;-77
2021/05/06 15:23:09;;;;;;;1.42;0.50;;;10.90;99.20;;;;;;5115393;28;20051;-77
2021/05/06 15:25:36;;;;;;;1.08;0.60;;;10.90;99.20;;;;;;5115087;28;20079;-77
2021/05/06 15:28:03;;;;;;;1.15;0.57;;;10.90;99.00;;;;;;5114467;28;20047;-78